sensor_id;sensor_type;location;lat;lon;timestamp;P1;durP1;ratioP1;P2;durP2;ratioP2
58615;SDS011;44385;51.992;4.206;2023-03-31T00:00:09;18.75;;;4.53;;
58615;SDS011;44385;51.992;4.206;2023-03-31T00:02:40;16.52;;;4.68;;
58615;SDS011;44385;51.992;4.206;2023-03-31T00:05:07;19.38;;;4.90;;
58615;SDS011;44385;51.992;4.206;2023-03-31T00:07:33;22.63;;;5.28;;
58615;SDS011;44385;51.992;4.206;2023-03-31T00:10:02;20.25;;;5.40;;
58615;SDS011;44385;51.992;4.206;2023-03-31T00:12:30;21.25;;;4.80;;
58615;SDS011;44385;51.992;4.206;2023-03-31T00:14:56;16.30;;;4.30;;
58615;SDS011;44385;51.992;4.206;2023-03-31T00:17:23;14.70;;;4.05;;
58615;SDS011;44385;51.992;4.206;2023-03-31T00:19:49;15.65;;;4.18;;
58615;SDS011;44385;51.992;4.206;2023-03-31T00:22:16;14.23;;;4.22;;
58615;SDS011;44385;51.992;4.206;2023-03-31T00:24:46;19.00;;;4.55;;
58615;SDS011;44385;51.992;4.206;2023-03-31T00:27:13;13.18;;;4.53;;
58615;SDS011;44385;51.992;4.206;2023-03-31T00:29:44;13.48;;;3.85;;
58615;SDS011;44385;51.992;4.206;2023-03-31T00:32:12;10.57;;;3.55;;
58615;SDS011;44385;51.992;4.206;2023-03-31T00:34:40;15.00;;;3.23;;
58615;SDS011;44385;51.992;4.206;2023-03-31T00:37:08;16.35;;;3.95;;
58615;SDS011;44385;51.992;4.206;2023-03-31T00:39:40;13.38;;;3.92;;
58615;SDS011;44385;51.992;4.206;2023-03-31T00:42:08;14.00;;;4.03;;
58615;SDS011;44385;51.992;4.206;2023-03-31T00:44:38;16.70;;;4.60;;
58615;SDS011;44385;51.992;4.206;2023-03-31T00:47:11;15.02;;;4.15;;
58615;SDS011;44385;51.992;4.206;2023-03-31T00:49:41;14.43;;;4.25;;
58615;SDS011;44385;51.992;4.206;2023-03-31T00:52:10;17.10;;;3.80;;
58615;SDS011;44385;51.992;4.206;2023-03-31T00:54:41;11.07;;;4.30;;
58615;SDS011;44385;51.992;4.206;2023-03-31T00:57:08;14.73;;;4.70;;
58615;SDS011;44385;51.992;4.206;2023-03-31T00:59:36;13.60;;;4.63;;
58615;SDS011;44385;51.992;4.206;2023-03-31T01:02:03;12.38;;;4.68;;
58615;SDS011;44385;51.992;4.206;2023-03-31T01:04:32;18.08;;;4.68;;
58615;SDS011;44385;51.992;4.206;2023-03-31T01:07:02;14.63;;;4.35;;
58615;SDS011;44385;51.992;4.206;2023-03-31T01:09:33;11.73;;;3.72;;
58615;SDS011;44385;51.992;4.206;2023-03-31T01:12:00;20.00;;;5.47;;
58615;SDS011;44385;51.992;4.206;2023-03-31T01:14:27;12.40;;;4.53;;
58615;SDS011;44385;51.992;4.206;2023-03-31T01:16:54;21.05;;;5.65;;
58615;SDS011;44385;51.992;4.206;2023-03-31T01:19:22;11.45;;;4.60;;
58615;SDS011;44385;51.992;4.206;2023-03-31T01:22:02;16.15;;;4.95;;
58615;SDS011;44385;51.992;4.206;2023-03-31T01:24:45;16.30;;;4.13;;
58615;SDS011;44385;51.992;4.206;2023-03-31T01:27:20;17.90;;;5.40;;
58615;SDS011;44385;51.992;4.206;2023-03-31T01:29:58;17.33;;;4.68;;
58615;SDS011;44385;51.992;4.206;2023-03-31T01:32:34;16.48;;;4.70;;
58615;SDS011;44385;51.992;4.206;2023-03-31T01:35:13;15.82;;;4.25;;
58615;SDS011;44385;51.992;4.206;2023-03-31T01:37:51;22.27;;;4.47;;
58615;SDS011;44385;51.992;4.206;2023-03-31T01:42:53;16.92;;;4.20;;
58615;SDS011;44385;51.992;4.206;2023-03-31T01:45:25;15.13;;;4.40;;
58615;SDS011;44385;51.992;4.206;2023-03-31T01:47:54;18.05;;;4.00;;
58615;SDS011;44385;51.992;4.206;2023-03-31T01:50:23;21.98;;;4.40;;
58615;SDS011;44385;51.992;4.206;2023-03-31T01:52:54;16.55;;;4.00;;
58615;SDS011;44385;51.992;4.206;2023-03-31T01:55:23;14.55;;;5.30;;
58615;SDS011;44385;51.992;4.206;2023-03-31T01:57:51;15.18;;;4.15;;
58615;SDS011;44385;51.992;4.206;2023-03-31T02:00:20;12.20;;;3.85;;
58615;SDS011;44385;51.992;4.206;2023-03-31T02:02:54;12.50;;;3.85;;
58615;SDS011;44385;51.992;4.206;2023-03-31T02:05:22;24.35;;;5.03;;
58615;SDS011;44385;51.992;4.206;2023-03-31T02:07:51;13.85;;;4.15;;
58615;SDS011;44385;51.992;4.206;2023-03-31T02:10:19;20.08;;;4.35;;
58615;SDS011;44385;51.992;4.206;2023-03-31T02:12:47;20.17;;;4.18;;
58615;SDS011;44385;51.992;4.206;2023-03-31T02:15:17;14.27;;;4.55;;
58615;SDS011;44385;51.992;4.206;2023-03-31T02:17:48;13.50;;;4.18;;
58615;SDS011;44385;51.992;4.206;2023-03-31T02:20:16;15.68;;;4.03;;
58615;SDS011;44385;51.992;4.206;2023-03-31T02:22:45;21.30;;;4.53;;
58615;SDS011;44385;51.992;4.206;2023-03-31T02:25:17;18.50;;;4.53;;
58615;SDS011;44385;51.992;4.206;2023-03-31T02:27:45;15.65;;;4.07;;
58615;SDS011;44385;51.992;4.206;2023-03-31T02:30:13;17.55;;;3.90;;
58615;SDS011;44385;51.992;4.206;2023-03-31T02:32:43;14.82;;;4.28;;
58615;SDS011;44385;51.992;4.206;2023-03-31T02:35:15;15.73;;;3.88;;
58615;SDS011;44385;51.992;4.206;2023-03-31T02:37:42;16.33;;;4.75;;
58615;SDS011;44385;51.992;4.206;2023-03-31T02:40:11;18.60;;;4.93;;
58615;SDS011;44385;51.992;4.206;2023-03-31T02:42:41;13.85;;;3.92;;
58615;SDS011;44385;51.992;4.206;2023-03-31T02:47:49;14.10;;;4.82;;
58615;SDS011;44385;51.992;4.206;2023-03-31T02:50:17;16.48;;;4.70;;
58615;SDS011;44385;51.992;4.206;2023-03-31T02:52:50;19.83;;;4.88;;
58615;SDS011;44385;51.992;4.206;2023-03-31T02:55:24;12.10;;;4.20;;
58615;SDS011;44385;51.992;4.206;2023-03-31T03:00:41;20.17;;;4.93;;
58615;SDS011;44385;51.992;4.206;2023-03-31T03:03:13;14.35;;;3.30;;
58615;SDS011;44385;51.992;4.206;2023-03-31T03:05:44;10.30;;;3.22;;
58615;SDS011;44385;51.992;4.206;2023-03-31T03:08:16;11.70;;;3.30;;
58615;SDS011;44385;51.992;4.206;2023-03-31T03:10:47;10.43;;;2.58;;
58615;SDS011;44385;51.992;4.206;2023-03-31T03:13:20;10.98;;;3.33;;
58615;SDS011;44385;51.992;4.206;2023-03-31T03:18:18;10.13;;;2.95;;
58615;SDS011;44385;51.992;4.206;2023-03-31T03:20:45;8.48;;;3.30;;
58615;SDS011;44385;51.992;4.206;2023-03-31T03:23:14;15.77;;;3.30;;
58615;SDS011;44385;51.992;4.206;2023-03-31T03:25:42;14.07;;;3.95;;
58615;SDS011;44385;51.992;4.206;2023-03-31T03:28:08;11.93;;;2.90;;
58615;SDS011;44385;51.992;4.206;2023-03-31T03:30:35;9.25;;;2.95;;
58615;SDS011;44385;51.992;4.206;2023-03-31T03:33:01;8.88;;;2.38;;
58615;SDS011;44385;51.992;4.206;2023-03-31T03:35:30;7.97;;;2.70;;
58615;SDS011;44385;51.992;4.206;2023-03-31T03:37:57;10.70;;;3.05;;
58615;SDS011;44385;51.992;4.206;2023-03-31T03:40:24;13.52;;;3.55;;
58615;SDS011;44385;51.992;4.206;2023-03-31T03:42:50;11.25;;;2.50;;
58615;SDS011;44385;51.992;4.206;2023-03-31T03:45:17;13.00;;;2.90;;
58615;SDS011;44385;51.992;4.206;2023-03-31T03:47:43;13.07;;;3.00;;
58615;SDS011;44385;51.992;4.206;2023-03-31T03:50:10;13.23;;;3.63;;
58615;SDS011;44385;51.992;4.206;2023-03-31T03:52:38;16.45;;;3.17;;
58615;SDS011;44385;51.992;4.206;2023-03-31T03:55:06;12.32;;;2.90;;
58615;SDS011;44385;51.992;4.206;2023-03-31T03:57:32;15.25;;;3.45;;
58615;SDS011;44385;51.992;4.206;2023-03-31T03:59:59;17.88;;;4.43;;
58615;SDS011;44385;51.992;4.206;2023-03-31T04:02:25;11.20;;;3.65;;
58615;SDS011;44385;51.992;4.206;2023-03-31T04:04:52;16.75;;;4.32;;
58615;SDS011;44385;51.992;4.206;2023-03-31T04:07:18;19.58;;;4.65;;
58615;SDS011;44385;51.992;4.206;2023-03-31T04:09:45;16.40;;;5.60;;
58615;SDS011;44385;51.992;4.206;2023-03-31T04:12:16;17.98;;;5.60;;
58615;SDS011;44385;51.992;4.206;2023-03-31T04:14:42;13.00;;;5.40;;
58615;SDS011;44385;51.992;4.206;2023-03-31T04:17:09;15.63;;;5.70;;
58615;SDS011;44385;51.992;4.206;2023-03-31T04:19:39;10.05;;;4.78;;
58615;SDS011;44385;51.992;4.206;2023-03-31T04:22:06;14.23;;;4.97;;
58615;SDS011;44385;51.992;4.206;2023-03-31T04:24:35;14.50;;;5.55;;
58615;SDS011;44385;51.992;4.206;2023-03-31T04:27:03;17.50;;;6.20;;
58615;SDS011;44385;51.992;4.206;2023-03-31T04:29:32;17.73;;;5.43;;
58615;SDS011;44385;51.992;4.206;2023-03-31T04:32:01;9.90;;;4.18;;
58615;SDS011;44385;51.992;4.206;2023-03-31T04:34:27;9.63;;;4.03;;
58615;SDS011;44385;51.992;4.206;2023-03-31T04:36:59;13.60;;;3.83;;
58615;SDS011;44385;51.992;4.206;2023-03-31T04:39:27;12.38;;;3.75;;
58615;SDS011;44385;51.992;4.206;2023-03-31T04:41:54;15.43;;;3.53;;
58615;SDS011;44385;51.992;4.206;2023-03-31T04:44:21;11.85;;;3.50;;
58615;SDS011;44385;51.992;4.206;2023-03-31T04:46:51;11.38;;;3.50;;
58615;SDS011;44385;51.992;4.206;2023-03-31T04:49:18;11.80;;;3.58;;
58615;SDS011;44385;51.992;4.206;2023-03-31T04:51:44;8.93;;;3.10;;
58615;SDS011;44385;51.992;4.206;2023-03-31T04:54:21;14.48;;;3.53;;
58615;SDS011;44385;51.992;4.206;2023-03-31T04:56:51;5.93;;;2.70;;
58615;SDS011;44385;51.992;4.206;2023-03-31T04:59:17;10.07;;;2.67;;
58615;SDS011;44385;51.992;4.206;2023-03-31T05:01:44;13.75;;;3.20;;
58615;SDS011;44385;51.992;4.206;2023-03-31T05:04:21;4.00;;;2.03;;
58615;SDS011;44385;51.992;4.206;2023-03-31T05:06:47;8.57;;;2.53;;
58615;SDS011;44385;51.992;4.206;2023-03-31T05:09:16;9.10;;;2.58;;
58615;SDS011;44385;51.992;4.206;2023-03-31T05:11:46;12.98;;;2.35;;
58615;SDS011;44385;51.992;4.206;2023-03-31T05:14:16;10.23;;;3.17;;
58615;SDS011;44385;51.992;4.206;2023-03-31T05:16:42;5.60;;;2.30;;
58615;SDS011;44385;51.992;4.206;2023-03-31T05:19:09;9.98;;;4.05;;
58615;SDS011;44385;51.992;4.206;2023-03-31T05:21:37;4.75;;;1.88;;
58615;SDS011;44385;51.992;4.206;2023-03-31T05:24:05;5.55;;;2.25;;
58615;SDS011;44385;51.992;4.206;2023-03-31T05:26:32;5.85;;;1.83;;
58615;SDS011;44385;51.992;4.206;2023-03-31T05:28:58;3.30;;;1.58;;
58615;SDS011;44385;51.992;4.206;2023-03-31T05:31:27;3.55;;;1.75;;
58615;SDS011;44385;51.992;4.206;2023-03-31T05:33:54;5.45;;;1.83;;
58615;SDS011;44385;51.992;4.206;2023-03-31T05:36:20;6.40;;;2.53;;
58615;SDS011;44385;51.992;4.206;2023-03-31T05:38:51;5.50;;;2.08;;
58615;SDS011;44385;51.992;4.206;2023-03-31T05:41:17;3.13;;;1.70;;
58615;SDS011;44385;51.992;4.206;2023-03-31T05:43:44;3.13;;;1.77;;
58615;SDS011;44385;51.992;4.206;2023-03-31T05:46:10;4.32;;;1.63;;
58615;SDS011;44385;51.992;4.206;2023-03-31T05:48:45;2.92;;;1.73;;
58615;SDS011;44385;51.992;4.206;2023-03-31T05:51:15;4.60;;;1.55;;
58615;SDS011;44385;51.992;4.206;2023-03-31T05:53:41;3.80;;;1.77;;
58615;SDS011;44385;51.992;4.206;2023-03-31T05:56:09;3.38;;;1.55;;
58615;SDS011;44385;51.992;4.206;2023-03-31T05:58:37;4.17;;;1.77;;
58615;SDS011;44385;51.992;4.206;2023-03-31T06:01:03;4.80;;;2.30;;
58615;SDS011;44385;51.992;4.206;2023-03-31T06:03:30;7.28;;;2.20;;
58615;SDS011;44385;51.992;4.206;2023-03-31T06:06:00;4.07;;;1.83;;
58615;SDS011;44385;51.992;4.206;2023-03-31T06:08:27;6.35;;;2.20;;
58615;SDS011;44385;51.992;4.206;2023-03-31T06:10:53;5.25;;;2.08;;
58615;SDS011;44385;51.992;4.206;2023-03-31T06:13:21;6.53;;;1.70;;
58615;SDS011;44385;51.992;4.206;2023-03-31T06:15:51;7.35;;;2.08;;
58615;SDS011;44385;51.992;4.206;2023-03-31T06:18:18;4.88;;;1.75;;
58615;SDS011;44385;51.992;4.206;2023-03-31T06:20:44;8.80;;;2.45;;
58615;SDS011;44385;51.992;4.206;2023-03-31T06:23:20;8.02;;;2.35;;
58615;SDS011;44385;51.992;4.206;2023-03-31T06:25:47;7.13;;;2.03;;
58615;SDS011;44385;51.992;4.206;2023-03-31T06:28:16;6.82;;;1.95;;
58615;SDS011;44385;51.992;4.206;2023-03-31T06:30:44;8.27;;;2.13;;
58615;SDS011;44385;51.992;4.206;2023-03-31T06:33:10;7.18;;;1.80;;
58615;SDS011;44385;51.992;4.206;2023-03-31T06:35:41;6.95;;;1.88;;
58615;SDS011;44385;51.992;4.206;2023-03-31T06:38:07;7.95;;;2.45;;
58615;SDS011;44385;51.992;4.206;2023-03-31T06:40:34;5.97;;;2.45;;
58615;SDS011;44385;51.992;4.206;2023-03-31T06:43:00;13.00;;;3.20;;
58615;SDS011;44385;51.992;4.206;2023-03-31T06:45:26;8.82;;;2.45;;
58615;SDS011;44385;51.992;4.206;2023-03-31T06:47:54;6.57;;;2.80;;
58615;SDS011;44385;51.992;4.206;2023-03-31T06:50:21;9.80;;;3.05;;
58615;SDS011;44385;51.992;4.206;2023-03-31T06:52:47;10.02;;;3.28;;
58615;SDS011;44385;51.992;4.206;2023-03-31T06:57:43;13.25;;;4.05;;
58615;SDS011;44385;51.992;4.206;2023-03-31T07:00:09;8.45;;;4.10;;
58615;SDS011;44385;51.992;4.206;2023-03-31T07:02:42;10.93;;;3.90;;
58615;SDS011;44385;51.992;4.206;2023-03-31T07:05:09;6.25;;;3.88;;
58615;SDS011;44385;51.992;4.206;2023-03-31T07:07:50;12.80;;;4.88;;
58615;SDS011;44385;51.992;4.206;2023-03-31T07:10:17;12.85;;;4.95;;
58615;SDS011;44385;51.992;4.206;2023-03-31T07:12:43;12.60;;;4.55;;
58615;SDS011;44385;51.992;4.206;2023-03-31T07:15:10;11.07;;;3.58;;
58615;SDS011;44385;51.992;4.206;2023-03-31T07:17:43;13.55;;;4.28;;
58615;SDS011;44385;51.992;4.206;2023-03-31T07:20:17;9.23;;;3.80;;
58615;SDS011;44385;51.992;4.206;2023-03-31T07:22:44;13.68;;;4.53;;
58615;SDS011;44385;51.992;4.206;2023-03-31T07:25:12;11.98;;;4.15;;
58615;SDS011;44385;51.992;4.206;2023-03-31T07:27:42;15.15;;;4.50;;
58615;SDS011;44385;51.992;4.206;2023-03-31T07:30:09;14.75;;;4.28;;
58615;SDS011;44385;51.992;4.206;2023-03-31T07:32:45;14.30;;;3.97;;
58615;SDS011;44385;51.992;4.206;2023-03-31T07:35:16;16.92;;;4.63;;
58615;SDS011;44385;51.992;4.206;2023-03-31T07:37:44;15.18;;;4.82;;
58615;SDS011;44385;51.992;4.206;2023-03-31T07:40:21;14.05;;;3.92;;
58615;SDS011;44385;51.992;4.206;2023-03-31T07:42:47;15.05;;;3.85;;
58615;SDS011;44385;51.992;4.206;2023-03-31T07:45:18;15.85;;;4.88;;
58615;SDS011;44385;51.992;4.206;2023-03-31T07:47:44;16.48;;;4.22;;
58615;SDS011;44385;51.992;4.206;2023-03-31T07:50:19;13.23;;;3.92;;
58615;SDS011;44385;51.992;4.206;2023-03-31T07:52:46;13.65;;;3.63;;
58615;SDS011;44385;51.992;4.206;2023-03-31T07:55:15;16.15;;;3.65;;
58615;SDS011;44385;51.992;4.206;2023-03-31T08:00:10;9.07;;;3.97;;
58615;SDS011;44385;51.992;4.206;2023-03-31T08:02:38;14.13;;;3.70;;
58615;SDS011;44385;51.992;4.206;2023-03-31T08:05:05;10.98;;;3.90;;
58615;SDS011;44385;51.992;4.206;2023-03-31T08:07:33;10.10;;;3.38;;
58615;SDS011;44385;51.992;4.206;2023-03-31T08:10:00;14.13;;;4.07;;
58615;SDS011;44385;51.992;4.206;2023-03-31T08:12:32;12.52;;;3.85;;
58615;SDS011;44385;51.992;4.206;2023-03-31T08:14:58;15.82;;;4.80;;
58615;SDS011;44385;51.992;4.206;2023-03-31T08:17:25;16.33;;;5.00;;
58615;SDS011;44385;51.992;4.206;2023-03-31T08:19:52;17.45;;;4.78;;
58615;SDS011;44385;51.992;4.206;2023-03-31T08:22:18;17.63;;;6.18;;
58615;SDS011;44385;51.992;4.206;2023-03-31T08:24:51;25.20;;;6.22;;
58615;SDS011;44385;51.992;4.206;2023-03-31T08:27:17;18.77;;;5.47;;
58615;SDS011;44385;51.992;4.206;2023-03-31T08:29:43;26.48;;;5.50;;
58615;SDS011;44385;51.992;4.206;2023-03-31T08:32:10;22.45;;;6.38;;
58615;SDS011;44385;51.992;4.206;2023-03-31T08:34:40;23.80;;;4.85;;
58615;SDS011;44385;51.992;4.206;2023-03-31T08:37:07;20.45;;;4.50;;
58615;SDS011;44385;51.992;4.206;2023-03-31T08:39:34;22.65;;;5.03;;
58615;SDS011;44385;51.992;4.206;2023-03-31T08:42:03;23.25;;;5.05;;
58615;SDS011;44385;51.992;4.206;2023-03-31T08:44:33;22.30;;;4.40;;
58615;SDS011;44385;51.992;4.206;2023-03-31T08:47:04;22.85;;;4.93;;
58615;SDS011;44385;51.992;4.206;2023-03-31T08:49:33;25.15;;;4.93;;
58615;SDS011;44385;51.992;4.206;2023-03-31T08:52:04;19.08;;;4.97;;
58615;SDS011;44385;51.992;4.206;2023-03-31T08:54:35;15.30;;;3.63;;
58615;SDS011;44385;51.992;4.206;2023-03-31T08:57:05;13.68;;;4.65;;
58615;SDS011;44385;51.992;4.206;2023-03-31T08:59:36;16.80;;;5.00;;
58615;SDS011;44385;51.992;4.206;2023-03-31T09:02:08;22.67;;;6.80;;
58615;SDS011;44385;51.992;4.206;2023-03-31T09:04:49;20.77;;;5.13;;
58615;SDS011;44385;51.992;4.206;2023-03-31T09:07:18;20.38;;;4.80;;
58615;SDS011;44385;51.992;4.206;2023-03-31T09:09:53;14.00;;;3.83;;
58615;SDS011;44385;51.992;4.206;2023-03-31T09:12:27;16.30;;;3.72;;
58615;SDS011;44385;51.992;4.206;2023-03-31T09:15:00;16.63;;;3.95;;
58615;SDS011;44385;51.992;4.206;2023-03-31T09:17:29;16.98;;;4.32;;
58615;SDS011;44385;51.992;4.206;2023-03-31T09:19:56;19.98;;;4.32;;
58615;SDS011;44385;51.992;4.206;2023-03-31T09:22:25;21.07;;;4.87;;
58615;SDS011;44385;51.992;4.206;2023-03-31T09:24:54;15.52;;;3.28;;
58615;SDS011;44385;51.992;4.206;2023-03-31T09:27:22;16.40;;;4.13;;
58615;SDS011;44385;51.992;4.206;2023-03-31T09:29:53;16.98;;;4.13;;
58615;SDS011;44385;51.992;4.206;2023-03-31T09:32:21;18.83;;;4.18;;
58615;SDS011;44385;51.992;4.206;2023-03-31T09:34:52;19.88;;;4.50;;
58615;SDS011;44385;51.992;4.206;2023-03-31T09:37:21;23.45;;;5.07;;
58615;SDS011;44385;51.992;4.206;2023-03-31T09:39:51;22.02;;;5.43;;
58615;SDS011;44385;51.992;4.206;2023-03-31T09:42:17;21.05;;;4.35;;
58615;SDS011;44385;51.992;4.206;2023-03-31T09:44:46;34.22;;;5.60;;
58615;SDS011;44385;51.992;4.206;2023-03-31T09:47:17;21.40;;;5.22;;
58615;SDS011;44385;51.992;4.206;2023-03-31T09:49:51;23.77;;;6.30;;
58615;SDS011;44385;51.992;4.206;2023-03-31T09:52:21;25.48;;;5.75;;
58615;SDS011;44385;51.992;4.206;2023-03-31T09:54:49;21.65;;;4.75;;
58615;SDS011;44385;51.992;4.206;2023-03-31T09:57:22;18.83;;;4.28;;
58615;SDS011;44385;51.992;4.206;2023-03-31T09:59:49;23.58;;;4.30;;
58615;SDS011;44385;51.992;4.206;2023-03-31T10:05:06;13.68;;;5.38;;
58615;SDS011;44385;51.992;4.206;2023-03-31T10:07:33;19.10;;;3.83;;
58615;SDS011;44385;51.992;4.206;2023-03-31T10:10:00;15.50;;;3.75;;
58615;SDS011;44385;51.992;4.206;2023-03-31T10:12:27;7.50;;;2.58;;
58615;SDS011;44385;51.992;4.206;2023-03-31T10:15:00;13.07;;;3.70;;
58615;SDS011;44385;51.992;4.206;2023-03-31T10:17:27;11.43;;;2.92;;
58615;SDS011;44385;51.992;4.206;2023-03-31T10:19:55;12.68;;;3.58;;
58615;SDS011;44385;51.992;4.206;2023-03-31T10:22:27;14.25;;;3.70;;
58615;SDS011;44385;51.992;4.206;2023-03-31T10:24:54;10.30;;;3.55;;
58615;SDS011;44385;51.992;4.206;2023-03-31T10:27:32;18.40;;;4.65;;
58615;SDS011;44385;51.992;4.206;2023-03-31T10:30:00;11.70;;;3.10;;
58615;SDS011;44385;51.992;4.206;2023-03-31T10:32:27;14.80;;;3.20;;
58615;SDS011;44385;51.992;4.206;2023-03-31T10:34:54;20.23;;;3.30;;
58615;SDS011;44385;51.992;4.206;2023-03-31T10:37:22;16.08;;;3.53;;
58615;SDS011;44385;51.992;4.206;2023-03-31T10:39:56;13.07;;;3.53;;
58615;SDS011;44385;51.992;4.206;2023-03-31T10:42:23;14.23;;;2.50;;
58615;SDS011;44385;51.992;4.206;2023-03-31T10:44:51;18.77;;;3.75;;
58615;SDS011;44385;51.992;4.206;2023-03-31T10:47:34;9.70;;;3.42;;
58615;SDS011;44385;51.992;4.206;2023-03-31T10:50:03;11.88;;;3.63;;
58615;SDS011;44385;51.992;4.206;2023-03-31T10:52:29;16.38;;;3.45;;
58615;SDS011;44385;51.992;4.206;2023-03-31T10:55:13;14.65;;;3.90;;
58615;SDS011;44385;51.992;4.206;2023-03-31T10:57:41;14.40;;;4.10;;
58615;SDS011;44385;51.992;4.206;2023-03-31T11:00:15;12.68;;;4.07;;
58615;SDS011;44385;51.992;4.206;2023-03-31T11:02:48;16.05;;;3.85;;
58615;SDS011;44385;51.992;4.206;2023-03-31T11:05:18;16.35;;;3.75;;
58615;SDS011;44385;51.992;4.206;2023-03-31T11:07:52;11.48;;;3.33;;
58615;SDS011;44385;51.992;4.206;2023-03-31T11:10:26;11.07;;;4.10;;
58615;SDS011;44385;51.992;4.206;2023-03-31T11:12:58;9.85;;;2.83;;
58615;SDS011;44385;51.992;4.206;2023-03-31T11:15:28;10.02;;;3.05;;
58615;SDS011;44385;51.992;4.206;2023-03-31T11:18:02;10.82;;;2.83;;
58615;SDS011;44385;51.992;4.206;2023-03-31T11:20:32;12.30;;;3.15;;
58615;SDS011;44385;51.992;4.206;2023-03-31T11:23:00;9.05;;;3.35;;
58615;SDS011;44385;51.992;4.206;2023-03-31T11:25:32;11.77;;;2.63;;
58615;SDS011;44385;51.992;4.206;2023-03-31T11:30:47;10.40;;;2.60;;
58615;SDS011;44385;51.992;4.206;2023-03-31T11:33:21;12.73;;;2.90;;
58615;SDS011;44385;51.992;4.206;2023-03-31T11:35:53;9.50;;;2.20;;
58615;SDS011;44385;51.992;4.206;2023-03-31T11:38:30;7.70;;;1.95;;
58615;SDS011;44385;51.992;4.206;2023-03-31T11:41:04;7.80;;;1.77;;
58615;SDS011;44385;51.992;4.206;2023-03-31T11:43:33;6.97;;;2.65;;
58615;SDS011;44385;51.992;4.206;2023-03-31T11:46:00;7.97;;;2.50;;
58615;SDS011;44385;51.992;4.206;2023-03-31T11:48:30;7.78;;;2.58;;
58615;SDS011;44385;51.992;4.206;2023-03-31T11:51:00;8.77;;;2.33;;
58615;SDS011;44385;51.992;4.206;2023-03-31T11:53:28;5.32;;;2.00;;
58615;SDS011;44385;51.992;4.206;2023-03-31T11:55:56;7.28;;;2.80;;
58615;SDS011;44385;51.992;4.206;2023-03-31T11:58:25;8.35;;;2.42;;
58615;SDS011;44385;51.992;4.206;2023-03-31T12:00:54;8.32;;;2.35;;
58615;SDS011;44385;51.992;4.206;2023-03-31T12:03:22;5.95;;;2.25;;
58615;SDS011;44385;51.992;4.206;2023-03-31T12:05:50;10.98;;;2.95;;
58615;SDS011;44385;51.992;4.206;2023-03-31T12:08:22;11.77;;;2.45;;
58615;SDS011;44385;51.992;4.206;2023-03-31T12:10:52;11.00;;;3.25;;
58615;SDS011;44385;51.992;4.206;2023-03-31T12:13:35;8.77;;;2.28;;
58615;SDS011;44385;51.992;4.206;2023-03-31T12:16:07;11.02;;;3.95;;
58615;SDS011;44385;51.992;4.206;2023-03-31T12:18:35;9.85;;;2.60;;
58615;SDS011;44385;51.992;4.206;2023-03-31T12:21:03;10.70;;;3.20;;
58615;SDS011;44385;51.992;4.206;2023-03-31T12:23:32;10.43;;;3.03;;
58615;SDS011;44385;51.992;4.206;2023-03-31T12:26:00;19.47;;;3.80;;
58615;SDS011;44385;51.992;4.206;2023-03-31T12:28:29;18.60;;;3.95;;
58615;SDS011;44385;51.992;4.206;2023-03-31T12:30:57;15.65;;;3.63;;
58615;SDS011;44385;51.992;4.206;2023-03-31T12:33:26;9.82;;;2.80;;
58615;SDS011;44385;51.992;4.206;2023-03-31T12:36:01;8.43;;;3.60;;
58615;SDS011;44385;51.992;4.206;2023-03-31T12:38:40;9.63;;;2.55;;
58615;SDS011;44385;51.992;4.206;2023-03-31T12:43:48;10.18;;;3.25;;
58615;SDS011;44385;51.992;4.206;2023-03-31T12:46:22;8.85;;;3.08;;
58615;SDS011;44385;51.992;4.206;2023-03-31T12:48:56;5.63;;;2.80;;
58615;SDS011;44385;51.992;4.206;2023-03-31T12:51:30;11.80;;;3.17;;
58615;SDS011;44385;51.992;4.206;2023-03-31T12:54:03;5.75;;;2.28;;
58615;SDS011;44385;51.992;4.206;2023-03-31T12:59:21;8.52;;;2.63;;
58615;SDS011;44385;51.992;4.206;2023-03-31T13:04:32;10.27;;;2.20;;
58615;SDS011;44385;51.992;4.206;2023-03-31T13:06:58;6.60;;;1.70;;
58615;SDS011;44385;51.992;4.206;2023-03-31T13:09:38;5.72;;;1.83;;
58615;SDS011;44385;51.992;4.206;2023-03-31T13:12:05;5.85;;;1.50;;
58615;SDS011;44385;51.992;4.206;2023-03-31T13:14:36;4.43;;;1.30;;
58615;SDS011;44385;51.992;4.206;2023-03-31T13:17:11;4.68;;;1.23;;
58615;SDS011;44385;51.992;4.206;2023-03-31T13:19:38;3.58;;;1.55;;
58615;SDS011;44385;51.992;4.206;2023-03-31T13:22:06;6.40;;;2.05;;
58615;SDS011;44385;51.992;4.206;2023-03-31T13:24:52;4.03;;;1.90;;
58615;SDS011;44385;51.992;4.206;2023-03-31T13:27:29;9.18;;;2.30;;
58615;SDS011;44385;51.992;4.206;2023-03-31T13:29:57;4.95;;;1.95;;
58615;SDS011;44385;51.992;4.206;2023-03-31T13:32:23;7.38;;;2.97;;
58615;SDS011;44385;51.992;4.206;2023-03-31T13:34:52;5.78;;;2.00;;
58615;SDS011;44385;51.992;4.206;2023-03-31T13:37:34;6.32;;;2.20;;
58615;SDS011;44385;51.992;4.206;2023-03-31T13:40:17;8.15;;;2.15;;
58615;SDS011;44385;51.992;4.206;2023-03-31T13:42:57;9.60;;;2.30;;
58615;SDS011;44385;51.992;4.206;2023-03-31T13:45:49;9.93;;;2.30;;
58615;SDS011;44385;51.992;4.206;2023-03-31T13:51:14;7.45;;;1.90;;
58615;SDS011;44385;51.992;4.206;2023-03-31T13:56:37;8.90;;;2.50;;
58615;SDS011;44385;51.992;4.206;2023-03-31T13:59:18;10.45;;;3.40;;
58615;SDS011;44385;51.992;4.206;2023-03-31T14:01:57;14.93;;;4.70;;
58615;SDS011;44385;51.992;4.206;2023-03-31T14:04:30;9.35;;;3.15;;
58615;SDS011;44385;51.992;4.206;2023-03-31T14:07:05;6.05;;;2.40;;
58615;SDS011;44385;51.992;4.206;2023-03-31T14:09:33;9.50;;;3.75;;
58615;SDS011;44385;51.992;4.206;2023-03-31T14:12:00;10.27;;;3.33;;
58615;SDS011;44385;51.992;4.206;2023-03-31T14:14:44;11.43;;;3.40;;
58615;SDS011;44385;51.992;4.206;2023-03-31T14:17:12;6.03;;;2.15;;
58615;SDS011;44385;51.992;4.206;2023-03-31T14:19:49;7.50;;;1.63;;
58615;SDS011;44385;51.992;4.206;2023-03-31T14:22:22;9.77;;;1.88;;
58615;SDS011;44385;51.992;4.206;2023-03-31T14:24:54;12.07;;;2.20;;
58615;SDS011;44385;51.992;4.206;2023-03-31T14:27:29;10.75;;;2.53;;
58615;SDS011;44385;51.992;4.206;2023-03-31T14:30:04;6.57;;;1.63;;
58615;SDS011;44385;51.992;4.206;2023-03-31T14:32:36;8.20;;;1.83;;
58615;SDS011;44385;51.992;4.206;2023-03-31T14:35:13;8.65;;;1.83;;
58615;SDS011;44385;51.992;4.206;2023-03-31T14:37:47;12.10;;;2.70;;
58615;SDS011;44385;51.992;4.206;2023-03-31T14:40:17;12.57;;;2.38;;
58615;SDS011;44385;51.992;4.206;2023-03-31T14:42:45;14.05;;;2.28;;
58615;SDS011;44385;51.992;4.206;2023-03-31T14:45:16;10.05;;;1.95;;
58615;SDS011;44385;51.992;4.206;2023-03-31T14:47:53;11.70;;;2.47;;
58615;SDS011;44385;51.992;4.206;2023-03-31T14:50:20;7.70;;;2.00;;
58615;SDS011;44385;51.992;4.206;2023-03-31T14:52:47;7.47;;;2.63;;
58615;SDS011;44385;51.992;4.206;2023-03-31T14:55:14;11.13;;;1.83;;
58615;SDS011;44385;51.992;4.206;2023-03-31T14:57:41;8.15;;;1.83;;
58615;SDS011;44385;51.992;4.206;2023-03-31T15:00:11;7.32;;;1.88;;
58615;SDS011;44385;51.992;4.206;2023-03-31T15:02:40;10.73;;;2.55;;
58615;SDS011;44385;51.992;4.206;2023-03-31T15:05:09;10.73;;;3.55;;
58615;SDS011;44385;51.992;4.206;2023-03-31T15:07:40;6.90;;;2.55;;
58615;SDS011;44385;51.992;4.206;2023-03-31T15:10:07;12.43;;;2.88;;
58615;SDS011;44385;51.992;4.206;2023-03-31T15:12:33;11.35;;;2.70;;
58615;SDS011;44385;51.992;4.206;2023-03-31T15:15:02;14.83;;;3.53;;
58615;SDS011;44385;51.992;4.206;2023-03-31T15:17:31;13.77;;;3.38;;
58615;SDS011;44385;51.992;4.206;2023-03-31T15:20:16;9.57;;;3.78;;
58615;SDS011;44385;51.992;4.206;2023-03-31T15:22:48;9.35;;;3.83;;
58615;SDS011;44385;51.992;4.206;2023-03-31T15:25:16;6.75;;;3.53;;
58615;SDS011;44385;51.992;4.206;2023-03-31T15:27:43;8.40;;;4.32;;